sensor_id;sensor_type;location;lat;lon;timestamp;P1;durP1;ratioP1;P2;durP2;ratioP2
7903;SDS011;3997;48.416;8.512;2023-04-25T00:01:00;3.60;;;3.30;;
7903;SDS011;3997;48.416;8.512;2023-04-25T00:03:27;3.30;;;3.10;;
7903;SDS011;3997;48.416;8.512;2023-04-25T00:05:54;3.33;;;3.08;;
7903;SDS011;3997;48.416;8.512;2023-04-25T00:08:23;3.40;;;3.10;;
7903;SDS011;3997;48.416;8.512;2023-04-25T00:10:50;3.45;;;3.22;;
7903;SDS011;3997;48.416;8.512;2023-04-25T00:13:16;5.57;;;3.28;;
7903;SDS011;3997;48.416;8.512;2023-04-25T00:15:44;3.33;;;3.13;;
7903;SDS011;3997;48.416;8.512;2023-04-25T00:18:13;3.38;;;3.08;;
7903;SDS011;3997;48.416;8.512;2023-04-25T00:20:39;3.80;;;3.10;;
7903;SDS011;3997;48.416;8.512;2023-04-25T00:23:11;3.55;;;3.25;;
7903;SDS011;3997;48.416;8.512;2023-04-25T00:25:42;3.40;;;3.20;;
7903;SDS011;3997;48.416;8.512;2023-04-25T00:28:09;5.22;;;3.22;;
7903;SDS011;3997;48.416;8.512;2023-04-25T00:30:35;3.67;;;3.22;;
7903;SDS011;3997;48.416;8.512;2023-04-25T00:33:02;3.78;;;3.47;;
7903;SDS011;3997;48.416;8.512;2023-04-25T00:35:28;4.57;;;3.38;;
7903;SDS011;3997;48.416;8.512;2023-04-25T00:37:55;3.53;;;3.33;;
7903;SDS011;3997;48.416;8.512;2023-04-25T00:40:21;4.50;;;3.25;;
7903;SDS011;3997;48.416;8.512;2023-04-25T00:42:49;3.28;;;3.08;;
7903;SDS011;3997;48.416;8.512;2023-04-25T00:45:17;3.63;;;3.17;;
7903;SDS011;3997;48.416;8.512;2023-04-25T00:47:44;3.42;;;3.22;;
7903;SDS011;3997;48.416;8.512;2023-04-25T00:50:11;3.92;;;3.47;;
7903;SDS011;3997;48.416;8.512;2023-04-25T00:52:39;3.13;;;2.92;;
7903;SDS011;3997;48.416;8.512;2023-04-25T00:55:07;3.63;;;3.33;;
7903;SDS011;3997;48.416;8.512;2023-04-25T00:57:34;5.40;;;3.33;;
7903;SDS011;3997;48.416;8.512;2023-04-25T01:00:02;3.67;;;3.38;;
7903;SDS011;3997;48.416;8.512;2023-04-25T01:02:30;3.85;;;3.50;;
7903;SDS011;3997;48.416;8.512;2023-04-25T01:04:56;4.68;;;3.67;;
7903;SDS011;3997;48.416;8.512;2023-04-25T01:07:23;3.65;;;3.33;;
7903;SDS011;3997;48.416;8.512;2023-04-25T01:09:51;3.60;;;3.33;;
7903;SDS011;3997;48.416;8.512;2023-04-25T01:12:17;3.58;;;3.08;;
7903;SDS011;3997;48.416;8.512;2023-04-25T01:14:44;3.63;;;3.42;;
7903;SDS011;3997;48.416;8.512;2023-04-25T01:17:13;4.78;;;3.70;;
7903;SDS011;3997;48.416;8.512;2023-04-25T01:19:40;3.45;;;3.17;;
7903;SDS011;3997;48.416;8.512;2023-04-25T01:22:08;3.30;;;3.10;;
7903;SDS011;3997;48.416;8.512;2023-04-25T01:24:35;3.75;;;3.40;;
7903;SDS011;3997;48.416;8.512;2023-04-25T01:27:01;3.28;;;3.08;;
7903;SDS011;3997;48.416;8.512;2023-04-25T01:29:28;3.55;;;3.22;;
7903;SDS011;3997;48.416;8.512;2023-04-25T01:31:55;4.03;;;3.58;;
7903;SDS011;3997;48.416;8.512;2023-04-25T01:34:23;5.22;;;3.20;;
7903;SDS011;3997;48.416;8.512;2023-04-25T01:36:49;3.00;;;2.80;;
7903;SDS011;3997;48.416;8.512;2023-04-25T01:39:18;3.20;;;3.00;;
7903;SDS011;3997;48.416;8.512;2023-04-25T01:41:44;3.47;;;2.85;;
7903;SDS011;3997;48.416;8.512;2023-04-25T01:44:11;3.35;;;3.15;;
7903;SDS011;3997;48.416;8.512;2023-04-25T01:46:37;3.28;;;3.00;;
7903;SDS011;3997;48.416;8.512;2023-04-25T01:49:04;3.25;;;2.90;;
7903;SDS011;3997;48.416;8.512;2023-04-25T01:51:31;2.95;;;2.75;;
7903;SDS011;3997;48.416;8.512;2023-04-25T01:53:57;3.97;;;3.30;;
7903;SDS011;3997;48.416;8.512;2023-04-25T01:56:27;3.88;;;3.55;;
7903;SDS011;3997;48.416;8.512;2023-04-25T01:58:56;3.97;;;3.65;;
7903;SDS011;3997;48.416;8.512;2023-04-25T02:01:22;3.47;;;3.17;;
7903;SDS011;3997;48.416;8.512;2023-04-25T02:03:49;3.70;;;3.35;;
7903;SDS011;3997;48.416;8.512;2023-04-25T02:06:15;3.92;;;3.47;;
7903;SDS011;3997;48.416;8.512;2023-04-25T02:08:41;4.15;;;3.40;;
7903;SDS011;3997;48.416;8.512;2023-04-25T02:11:08;4.10;;;3.00;;
7903;SDS011;3997;48.416;8.512;2023-04-25T02:13:36;3.97;;;3.17;;
7903;SDS011;3997;48.416;8.512;2023-04-25T02:16:02;4.05;;;2.88;;
7903;SDS011;3997;48.416;8.512;2023-04-25T02:18:29;5.18;;;3.33;;
7903;SDS011;3997;48.416;8.512;2023-04-25T02:20:56;4.68;;;3.38;;
7903;SDS011;3997;48.416;8.512;2023-04-25T02:23:22;3.45;;;3.15;;
7903;SDS011;3997;48.416;8.512;2023-04-25T02:25:49;3.05;;;2.85;;
7903;SDS011;3997;48.416;8.512;2023-04-25T02:28:16;5.13;;;3.13;;
7903;SDS011;3997;48.416;8.512;2023-04-25T02:30:43;3.63;;;2.83;;
7903;SDS011;3997;48.416;8.512;2023-04-25T02:33:10;5.40;;;3.15;;
7903;SDS011;3997;48.416;8.512;2023-04-25T02:35:36;6.13;;;3.63;;
7903;SDS011;3997;48.416;8.512;2023-04-25T02:38:03;3.35;;;3.08;;
7903;SDS011;3997;48.416;8.512;2023-04-25T02:40:29;3.45;;;3.15;;
7903;SDS011;3997;48.416;8.512;2023-04-25T02:42:56;3.28;;;2.97;;
7903;SDS011;3997;48.416;8.512;2023-04-25T02:45:22;5.18;;;3.30;;
7903;SDS011;3997;48.416;8.512;2023-04-25T02:47:50;2.88;;;2.63;;
7903;SDS011;3997;48.416;8.512;2023-04-25T02:50:16;3.05;;;2.78;;
7903;SDS011;3997;48.416;8.512;2023-04-25T02:52:43;3.58;;;3.28;;
7903;SDS011;3997;48.416;8.512;2023-04-25T02:55:10;3.10;;;2.90;;
7903;SDS011;3997;48.416;8.512;2023-04-25T02:57:37;4.18;;;3.22;;
7903;SDS011;3997;48.416;8.512;2023-04-25T03:00:04;3.42;;;3.13;;
7903;SDS011;3997;48.416;8.512;2023-04-25T03:02:31;3.00;;;2.80;;
7903;SDS011;3997;48.416;8.512;2023-04-25T03:04:58;3.20;;;2.85;;
7903;SDS011;3997;48.416;8.512;2023-04-25T03:07:25;3.42;;;3.13;;
7903;SDS011;3997;48.416;8.512;2023-04-25T03:09:51;3.55;;;3.05;;
7903;SDS011;3997;48.416;8.512;2023-04-25T03:12:18;3.25;;;2.95;;
7903;SDS011;3997;48.416;8.512;2023-04-25T03:14:44;3.00;;;2.70;;
7903;SDS011;3997;48.416;8.512;2023-04-25T03:17:11;3.35;;;3.05;;
7903;SDS011;3997;48.416;8.512;2023-04-25T03:19:37;6.05;;;3.45;;
7903;SDS011;3997;48.416;8.512;2023-04-25T03:22:05;3.70;;;3.50;;
7903;SDS011;3997;48.416;8.512;2023-04-25T03:24:32;4.70;;;4.30;;
7903;SDS011;3997;48.416;8.512;2023-04-25T03:26:58;7.43;;;3.42;;
7903;SDS011;3997;48.416;8.512;2023-04-25T03:29:25;21.30;;;3.55;;
7903;SDS011;3997;48.416;8.512;2023-04-25T03:31:53;26.63;;;4.95;;
7903;SDS011;3997;48.416;8.512;2023-04-25T03:34:19;12.65;;;3.42;;
7903;SDS011;3997;48.416;8.512;2023-04-25T03:36:46;24.35;;;3.40;;
7903;SDS011;3997;48.416;8.512;2023-04-25T03:39:14;4.45;;;2.65;;
7903;SDS011;3997;48.416;8.512;2023-04-25T03:41:40;3.85;;;2.80;;
7903;SDS011;3997;48.416;8.512;2023-04-25T03:44:07;3.08;;;2.60;;
7903;SDS011;3997;48.416;8.512;2023-04-25T03:46:33;5.70;;;2.55;;
7903;SDS011;3997;48.416;8.512;2023-04-25T03:49:00;3.47;;;2.72;;
7903;SDS011;3997;48.416;8.512;2023-04-25T03:51:26;3.22;;;3.00;;
7903;SDS011;3997;48.416;8.512;2023-04-25T03:53:53;2.97;;;2.78;;
7903;SDS011;3997;48.416;8.512;2023-04-25T03:56:20;3.67;;;3.15;;
7903;SDS011;3997;48.416;8.512;2023-04-25T03:58:47;4.53;;;2.90;;
7903;SDS011;3997;48.416;8.512;2023-04-25T04:01:13;3.20;;;2.90;;
7903;SDS011;3997;48.416;8.512;2023-04-25T04:03:40;3.10;;;2.90;;
7903;SDS011;3997;48.416;8.512;2023-04-25T04:06:06;2.70;;;2.50;;
7903;SDS011;3997;48.416;8.512;2023-04-25T04:08:34;2.72;;;2.53;;
7903;SDS011;3997;48.416;8.512;2023-04-25T04:11:00;4.00;;;3.15;;
7903;SDS011;3997;48.416;8.512;2023-04-25T04:13:28;2.78;;;2.50;;
7903;SDS011;3997;48.416;8.512;2023-04-25T04:15:55;3.40;;;3.10;;
7903;SDS011;3997;48.416;8.512;2023-04-25T04:18:22;2.42;;;2.22;;
7903;SDS011;3997;48.416;8.512;2023-04-25T04:20:48;2.13;;;2.00;;
7903;SDS011;3997;48.416;8.512;2023-04-25T04:23:15;2.05;;;1.92;;
7903;SDS011;3997;48.416;8.512;2023-04-25T04:25:42;1.85;;;1.67;;
7903;SDS011;3997;48.416;8.512;2023-04-25T04:28:08;2.45;;;2.28;;
7903;SDS011;3997;48.416;8.512;2023-04-25T04:30:37;1.40;;;1.30;;
7903;SDS011;3997;48.416;8.512;2023-04-25T04:33:04;1.88;;;1.52;;
7903;SDS011;3997;48.416;8.512;2023-04-25T04:35:31;1.77;;;1.67;;
7903;SDS011;3997;48.416;8.512;2023-04-25T04:37:57;5.47;;;4.93;;
7903;SDS011;3997;48.416;8.512;2023-04-25T04:40:23;5.35;;;4.68;;
7903;SDS011;3997;48.416;8.512;2023-04-25T04:42:50;5.45;;;4.85;;
7903;SDS011;3997;48.416;8.512;2023-04-25T04:45:18;8.65;;;6.43;;
7903;SDS011;3997;48.416;8.512;2023-04-25T04:47:47;7.70;;;6.82;;
7903;SDS011;3997;48.416;8.512;2023-04-25T04:50:13;3.50;;;3.13;;
7903;SDS011;3997;48.416;8.512;2023-04-25T04:52:40;3.35;;;3.05;;
7903;SDS011;3997;48.416;8.512;2023-04-25T04:55:06;2.67;;;2.42;;
7903;SDS011;3997;48.416;8.512;2023-04-25T04:57:33;1.92;;;1.83;;
7903;SDS011;3997;48.416;8.512;2023-04-25T05:00:00;2.10;;;2.00;;
7903;SDS011;3997;48.416;8.512;2023-04-25T05:02:27;2.10;;;1.95;;
7903;SDS011;3997;48.416;8.512;2023-04-25T05:04:55;2.75;;;2.05;;
7903;SDS011;3997;48.416;8.512;2023-04-25T05:07:22;2.15;;;2.03;;
7903;SDS011;3997;48.416;8.512;2023-04-25T05:09:48;2.38;;;2.28;;
7903;SDS011;3997;48.416;8.512;2023-04-25T05:12:15;2.00;;;1.90;;
7903;SDS011;3997;48.416;8.512;2023-04-25T05:14:41;2.03;;;1.92;;
7903;SDS011;3997;48.416;8.512;2023-04-25T05:17:07;2.10;;;2.00;;
7903;SDS011;3997;48.416;8.512;2023-04-25T05:19:34;2.22;;;2.00;;
7903;SDS011;3997;48.416;8.512;2023-04-25T05:22:02;2.28;;;1.90;;
7903;SDS011;3997;48.416;8.512;2023-04-25T05:24:28;2.20;;;2.03;;
7903;SDS011;3997;48.416;8.512;2023-04-25T05:26:55;2.95;;;2.05;;
7903;SDS011;3997;48.416;8.512;2023-04-25T05:29:22;2.00;;;1.90;;
7903;SDS011;3997;48.416;8.512;2023-04-25T05:31:48;2.83;;;2.20;;
7903;SDS011;3997;48.416;8.512;2023-04-25T05:34:14;2.25;;;2.10;;
7903;SDS011;3997;48.416;8.512;2023-04-25T05:36:41;3.45;;;1.83;;
7903;SDS011;3997;48.416;8.512;2023-04-25T05:39:09;2.13;;;1.92;;
7903;SDS011;3997;48.416;8.512;2023-04-25T05:41:36;2.17;;;1.98;;
7903;SDS011;3997;48.416;8.512;2023-04-25T05:44:02;4.85;;;4.45;;
7903;SDS011;3997;48.416;8.512;2023-04-25T05:46:29;3.20;;;2.97;;
7903;SDS011;3997;48.416;8.512;2023-04-25T05:48:55;2.75;;;2.30;;
7903;SDS011;3997;48.416;8.512;2023-04-25T05:51:22;2.15;;;2.05;;
7903;SDS011;3997;48.416;8.512;2023-04-25T05:53:48;2.15;;;1.95;;
7903;SDS011;3997;48.416;8.512;2023-04-25T05:56:16;2.60;;;2.40;;
7903;SDS011;3997;48.416;8.512;2023-04-25T05:58:42;2.88;;;2.03;;
7903;SDS011;3997;48.416;8.512;2023-04-25T06:01:09;2.40;;;2.30;;
7903;SDS011;3997;48.416;8.512;2023-04-25T06:03:35;2.40;;;2.20;;
7903;SDS011;3997;48.416;8.512;2023-04-25T06:06:03;2.50;;;2.28;;
7903;SDS011;3997;48.416;8.512;2023-04-25T06:08:29;2.10;;;2.00;;
7903;SDS011;3997;48.416;8.512;2023-04-25T06:10:56;2.95;;;2.33;;
7903;SDS011;3997;48.416;8.512;2023-04-25T06:13:24;2.92;;;2.10;;
7903;SDS011;3997;48.416;8.512;2023-04-25T06:15:50;2.20;;;2.10;;
7903;SDS011;3997;48.416;8.512;2023-04-25T06:18:16;3.72;;;2.25;;
7903;SDS011;3997;48.416;8.512;2023-04-25T06:20:43;2.55;;;2.45;;
7903;SDS011;3997;48.416;8.512;2023-04-25T06:23:09;2.88;;;2.45;;
7903;SDS011;3997;48.416;8.512;2023-04-25T06:25:36;2.13;;;2.03;;
7903;SDS011;3997;48.416;8.512;2023-04-25T06:28:02;2.60;;;2.17;;
7903;SDS011;3997;48.416;8.512;2023-04-25T06:30:30;2.17;;;1.98;;
7903;SDS011;3997;48.416;8.512;2023-04-25T06:32:56;2.10;;;2.00;;
7903;SDS011;3997;48.416;8.512;2023-04-25T06:35:23;2.10;;;1.90;;
7903;SDS011;3997;48.416;8.512;2023-04-25T06:37:49;2.20;;;2.10;;
7903;SDS011;3997;48.416;8.512;2023-04-25T06:40:16;2.08;;;1.98;;
7903;SDS011;3997;48.416;8.512;2023-04-25T06:42:43;2.20;;;2.10;;
7903;SDS011;3997;48.416;8.512;2023-04-25T06:45:10;2.30;;;2.10;;
7903;SDS011;3997;48.416;8.512;2023-04-25T06:47:38;2.13;;;1.90;;
7903;SDS011;3997;48.416;8.512;2023-04-25T06:50:05;2.70;;;2.30;;
7903;SDS011;3997;48.416;8.512;2023-04-25T06:52:31;2.50;;;2.40;;
7903;SDS011;3997;48.416;8.512;2023-04-25T06:54:58;2.75;;;2.55;;
7903;SDS011;3997;48.416;8.512;2023-04-25T06:57:24;2.60;;;2.40;;
7903;SDS011;3997;48.416;8.512;2023-04-25T06:59:51;2.40;;;2.30;;
7903;SDS011;3997;48.416;8.512;2023-04-25T07:02:17;2.30;;;2.10;;
7903;SDS011;3997;48.416;8.512;2023-04-25T07:04:45;2.80;;;2.40;;
7903;SDS011;3997;48.416;8.512;2023-04-25T07:07:11;2.55;;;2.35;;
7903;SDS011;3997;48.416;8.512;2023-04-25T07:09:38;2.40;;;2.20;;
7903;SDS011;3997;48.416;8.512;2023-04-25T07:12:04;2.38;;;2.25;;
7903;SDS011;3997;48.416;8.512;2023-04-25T07:14:31;2.28;;;2.17;;
7903;SDS011;3997;48.416;8.512;2023-04-25T07:16:57;2.45;;;2.25;;
7903;SDS011;3997;48.416;8.512;2023-04-25T07:19:23;3.58;;;2.20;;
7903;SDS011;3997;48.416;8.512;2023-04-25T07:21:53;2.53;;;2.33;;
7903;SDS011;3997;48.416;8.512;2023-04-25T07:24:19;2.53;;;2.03;;
7903;SDS011;3997;48.416;8.512;2023-04-25T07:26:46;2.40;;;2.30;;
7903;SDS011;3997;48.416;8.512;2023-04-25T07:29:12;2.30;;;2.10;;
7903;SDS011;3997;48.416;8.512;2023-04-25T07:31:38;2.20;;;2.10;;
7903;SDS011;3997;48.416;8.512;2023-04-25T07:34:05;2.38;;;2.20;;
7903;SDS011;3997;48.416;8.512;2023-04-25T07:36:31;1.92;;;1.83;;
7903;SDS011;3997;48.416;8.512;2023-04-25T07:38:59;1.70;;;1.60;;
7903;SDS011;3997;48.416;8.512;2023-04-25T07:41:26;1.17;;;1.17;;
7903;SDS011;3997;48.416;8.512;2023-04-25T07:43:52;1.27;;;1.27;;
7903;SDS011;3997;48.416;8.512;2023-04-25T07:46:18;1.63;;;1.10;;
7903;SDS011;3997;48.416;8.512;2023-04-25T07:48:45;1.55;;;0.80;;
7903;SDS011;3997;48.416;8.512;2023-04-25T07:51:11;0.90;;;0.90;;
7903;SDS011;3997;48.416;8.512;2023-04-25T07:53:38;0.75;;;0.75;;
7903;SDS011;3997;48.416;8.512;2023-04-25T07:56:06;1.10;;;1.10;;
7903;SDS011;3997;48.416;8.512;2023-04-25T07:58:32;0.82;;;0.82;;
7903;SDS011;3997;48.416;8.512;2023-04-25T08:00:59;0.90;;;0.90;;
7903;SDS011;3997;48.416;8.512;2023-04-25T08:03:25;0.82;;;0.82;;
7903;SDS011;3997;48.416;8.512;2023-04-25T08:05:52;1.02;;;0.88;;
7903;SDS011;3997;48.416;8.512;2023-04-25T08:08:18;1.77;;;1.13;;
7903;SDS011;3997;48.416;8.512;2023-04-25T08:10:45;6.28;;;4.15;;
7903;SDS011;3997;48.416;8.512;2023-04-25T08:13:14;1.05;;;1.02;;
7903;SDS011;3997;48.416;8.512;2023-04-25T08:15:41;4.90;;;3.03;;
7903;SDS011;3997;48.416;8.512;2023-04-25T08:18:07;1.60;;;1.50;;
7903;SDS011;3997;48.416;8.512;2023-04-25T08:20:34;0.90;;;0.90;;
7903;SDS011;3997;48.416;8.512;2023-04-25T08:23:00;8.13;;;5.85;;
7903;SDS011;3997;48.416;8.512;2023-04-25T08:25:27;4.45;;;3.95;;
7903;SDS011;3997;48.416;8.512;2023-04-25T08:27:53;7.35;;;5.55;;
7903;SDS011;3997;48.416;8.512;2023-04-25T08:30:22;3.45;;;3.15;;
7903;SDS011;3997;48.416;8.512;2023-04-25T08:32:49;3.40;;;3.10;;
7903;SDS011;3997;48.416;8.512;2023-04-25T08:35:15;2.70;;;2.50;;
7903;SDS011;3997;48.416;8.512;2023-04-25T08:37:42;1.20;;;1.20;;
7903;SDS011;3997;48.416;8.512;2023-04-25T08:40:10;2.95;;;2.75;;
7903;SDS011;3997;48.416;8.512;2023-04-25T08:42:37;1.70;;;1.60;;
7903;SDS011;3997;48.416;8.512;2023-04-25T08:45:04;2.28;;;2.08;;
7903;SDS011;3997;48.416;8.512;2023-04-25T08:47:33;1.90;;;1.77;;
7903;SDS011;3997;48.416;8.512;2023-04-25T08:50:00;3.13;;;1.40;;
7903;SDS011;3997;48.416;8.512;2023-04-25T08:52:28;2.45;;;2.25;;
7903;SDS011;3997;48.416;8.512;2023-04-25T08:54:56;1.73;;;1.63;;
7903;SDS011;3997;48.416;8.512;2023-04-25T08:57:23;1.33;;;1.33;;
7903;SDS011;3997;48.416;8.512;2023-04-25T08:59:50;1.10;;;1.10;;
7903;SDS011;3997;48.416;8.512;2023-04-25T09:02:18;1.10;;;1.10;;
7903;SDS011;3997;48.416;8.512;2023-04-25T09:04:47;1.20;;;1.20;;
7903;SDS011;3997;48.416;8.512;2023-04-25T09:07:13;0.90;;;0.90;;
7903;SDS011;3997;48.416;8.512;2023-04-25T09:09:43;1.00;;;1.00;;
7903;SDS011;3997;48.416;8.512;2023-04-25T09:12:09;0.90;;;0.90;;
7903;SDS011;3997;48.416;8.512;2023-04-25T09:14:36;0.95;;;0.95;;
7903;SDS011;3997;48.416;8.512;2023-04-25T09:17:03;0.80;;;0.80;;
7903;SDS011;3997;48.416;8.512;2023-04-25T09:19:31;0.80;;;0.80;;
7903;SDS011;3997;48.416;8.512;2023-04-25T09:22:00;0.90;;;0.90;;
7903;SDS011;3997;48.416;8.512;2023-04-25T09:24:35;0.90;;;0.90;;
7903;SDS011;3997;48.416;8.512;2023-04-25T09:27:05;0.93;;;0.93;;
7903;SDS011;3997;48.416;8.512;2023-04-25T09:29:32;0.90;;;0.90;;
7903;SDS011;3997;48.416;8.512;2023-04-25T09:32:11;1.00;;;1.00;;
7903;SDS011;3997;48.416;8.512;2023-04-25T09:34:39;1.10;;;1.00;;
7903;SDS011;3997;48.416;8.512;2023-04-25T09:37:06;0.90;;;0.90;;
7903;SDS011;3997;48.416;8.512;2023-04-25T09:39:33;0.90;;;0.90;;
7903;SDS011;3997;48.416;8.512;2023-04-25T09:42:00;0.90;;;0.90;;
7903;SDS011;3997;48.416;8.512;2023-04-25T09:44:26;0.85;;;0.85;;
7903;SDS011;3997;48.416;8.512;2023-04-25T09:46:53;1.25;;;0.82;;
7903;SDS011;3997;48.416;8.512;2023-04-25T09:49:19;0.80;;;0.80;;
7903;SDS011;3997;48.416;8.512;2023-04-25T09:51:53;0.80;;;0.80;;
7903;SDS011;3997;48.416;8.512;2023-04-25T09:54:21;0.82;;;0.82;;
7903;SDS011;3997;48.416;8.512;2023-04-25T09:56:48;0.70;;;0.70;;
7903;SDS011;3997;48.416;8.512;2023-04-25T09:59:14;0.70;;;0.70;;
7903;SDS011;3997;48.416;8.512;2023-04-25T10:01:41;0.60;;;0.60;;
7903;SDS011;3997;48.416;8.512;2023-04-25T10:04:09;0.80;;;0.80;;
7903;SDS011;3997;48.416;8.512;2023-04-25T10:06:36;0.80;;;0.80;;
7903;SDS011;3997;48.416;8.512;2023-04-25T10:09:04;0.60;;;0.60;;
7903;SDS011;3997;48.416;8.512;2023-04-25T10:11:34;0.70;;;0.70;;
7903;SDS011;3997;48.416;8.512;2023-04-25T10:14:01;0.60;;;0.60;;
7903;SDS011;3997;48.416;8.512;2023-04-25T10:16:27;0.70;;;0.70;;
7903;SDS011;3997;48.416;8.512;2023-04-25T10:18:54;0.80;;;0.80;;
7903;SDS011;3997;48.416;8.512;2023-04-25T10:21:21;0.80;;;0.80;;
7903;SDS011;3997;48.416;8.512;2023-04-25T10:23:48;0.77;;;0.77;;
7903;SDS011;3997;48.416;8.512;2023-04-25T10:26:15;0.80;;;0.80;;
7903;SDS011;3997;48.416;8.512;2023-04-25T10:31:24;0.50;;;0.50;;
7903;SDS011;3997;48.416;8.512;2023-04-25T10:33:51;0.50;;;0.50;;
7903;SDS011;3997;48.416;8.512;2023-04-25T10:36:18;0.85;;;0.50;;
7903;SDS011;3997;48.416;8.512;2023-04-25T10:38:47;0.50;;;0.50;;
7903;SDS011;3997;48.416;8.512;2023-04-25T10:41:13;0.40;;;0.40;;
7903;SDS011;3997;48.416;8.512;2023-04-25T10:43:40;0.30;;;0.30;;
7903;SDS011;3997;48.416;8.512;2023-04-25T10:46:19;0.70;;;0.70;;
7903;SDS011;3997;48.416;8.512;2023-04-25T10:48:49;0.60;;;0.60;;
7903;SDS011;3997;48.416;8.512;2023-04-25T10:51:17;0.30;;;0.30;;
7903;SDS011;3997;48.416;8.512;2023-04-25T10:53:44;1.30;;;0.30;;
7903;SDS011;3997;48.416;8.512;2023-04-25T10:56:11;0.30;;;0.30;;
7903;SDS011;3997;48.416;8.512;2023-04-25T10:58:41;0.20;;;0.20;;
7903;SDS011;3997;48.416;8.512;2023-04-25T11:01:08;0.52;;;0.50;;
7903;SDS011;3997;48.416;8.512;2023-04-25T11:03:37;1.33;;;0.50;;
7903;SDS011;3997;48.416;8.512;2023-04-25T11:06:05;1.25;;;1.15;;
7903;SDS011;3997;48.416;8.512;2023-04-25T11:08:34;1.27;;;1.15;;
7903;SDS011;3997;48.416;8.512;2023-04-25T11:11:04;1.90;;;1.60;;
7903;SDS011;3997;48.416;8.512;2023-04-25T11:13:30;3.97;;;3.45;;
7903;SDS011;3997;48.416;8.512;2023-04-25T11:15:57;1.90;;;1.70;;
7903;SDS011;3997;48.416;8.512;2023-04-25T11:18:25;1.40;;;1.30;;
7903;SDS011;3997;48.416;8.512;2023-04-25T11:20:52;0.70;;;0.70;;
7903;SDS011;3997;48.416;8.512;2023-04-25T11:23:19;0.75;;;0.75;;
7903;SDS011;3997;48.416;8.512;2023-04-25T11:25:46;1.05;;;0.70;;
7903;SDS011;3997;48.416;8.512;2023-04-25T11:28:12;0.90;;;0.80;;
7903;SDS011;3997;48.416;8.512;2023-04-25T11:30:39;0.85;;;0.85;;
7903;SDS011;3997;48.416;8.512;2023-04-25T11:33:05;0.90;;;0.75;;
7903;SDS011;3997;48.416;8.512;2023-04-25T11:35:32;0.85;;;0.82;;
7903;SDS011;3997;48.416;8.512;2023-04-25T11:37:58;0.80;;;0.80;;
7903;SDS011;3997;48.416;8.512;2023-04-25T11:40:27;0.85;;;0.77;;
7903;SDS011;3997;48.416;8.512;2023-04-25T11:42:53;0.80;;;0.80;;
7903;SDS011;3997;48.416;8.512;2023-04-25T11:45:20;1.20;;;1.10;;
7903;SDS011;3997;48.416;8.512;2023-04-25T11:47:46;1.02;;;1.02;;
7903;SDS011;3997;48.416;8.512;2023-04-25T11:50:13;1.17;;;1.00;;
7903;SDS011;3997;48.416;8.512;2023-04-25T11:52:40;1.13;;;1.10;;
7903;SDS011;3997;48.416;8.512;2023-04-25T11:55:07;1.30;;;1.20;;
7903;SDS011;3997;48.416;8.512;2023-04-25T11:57:36;1.05;;;1.05;;
7903;SDS011;3997;48.416;8.512;2023-04-25T12:00:07;1.33;;;1.05;;
7903;SDS011;3997;48.416;8.512;2023-04-25T12:02:36;0.98;;;0.90;;
7903;SDS011;3997;48.416;8.512;2023-04-25T12:05:05;0.90;;;0.90;;
7903;SDS011;3997;48.416;8.512;2023-04-25T12:07:33;1.23;;;1.13;;
7903;SDS011;3997;48.416;8.512;2023-04-25T12:10:03;0.93;;;0.93;;
7903;SDS011;3997;48.416;8.512;2023-04-25T12:12:31;1.40;;;1.30;;
7903;SDS011;3997;48.416;8.512;2023-04-25T12:15:07;1.17;;;1.17;;
7903;SDS011;3997;48.416;8.512;2023-04-25T12:17:34;1.60;;;1.50;;
7903;SDS011;3997;48.416;8.512;2023-04-25T12:20:05;1.70;;;1.60;;
7903;SDS011;3997;48.416;8.512;2023-04-25T12:22:32;1.50;;;1.40;;
7903;SDS011;3997;48.416;8.512;2023-04-25T12:24:58;1.50;;;1.40;;
7903;SDS011;3997;48.416;8.512;2023-04-25T12:27:25;1.48;;;1.35;;
7903;SDS011;3997;48.416;8.512;2023-04-25T12:29:52;1.15;;;1.15;;
7903;SDS011;3997;48.416;8.512;2023-04-25T12:32:20;1.45;;;1.30;;
7903;SDS011;3997;48.416;8.512;2023-04-25T12:34:47;1.60;;;1.50;;
7903;SDS011;3997;48.416;8.512;2023-04-25T12:37:14;1.65;;;1.55;;
7903;SDS011;3997;48.416;8.512;2023-04-25T12:39:40;1.63;;;1.52;;
7903;SDS011;3997;48.416;8.512;2023-04-25T12:42:07;1.30;;;1.20;;
7903;SDS011;3997;48.416;8.512;2023-04-25T12:44:36;1.40;;;1.30;;
7903;SDS011;3997;48.416;8.512;2023-04-25T12:47:03;1.60;;;1.50;;
7903;SDS011;3997;48.416;8.512;2023-04-25T12:49:31;1.58;;;1.48;;
7903;SDS011;3997;48.416;8.512;2023-04-25T12:51:58;1.80;;;1.60;;
7903;SDS011;3997;48.416;8.512;2023-04-25T12:54:25;1.42;;;1.33;;
7903;SDS011;3997;48.416;8.512;2023-04-25T12:56:51;1.75;;;1.65;;
7903;SDS011;3997;48.416;8.512;2023-04-25T12:59:18;1.80;;;1.58;;
7903;SDS011;3997;48.416;8.512;2023-04-25T13:01:45;1.50;;;1.40;;
7903;SDS011;3997;48.416;8.512;2023-04-25T13:04:11;1.60;;;1.50;;
7903;SDS011;3997;48.416;8.512;2023-04-25T13:06:39;1.67;;;1.58;;
7903;SDS011;3997;48.416;8.512;2023-04-25T13:09:06;1.48;;;1.40;;
7903;SDS011;3997;48.416;8.512;2023-04-25T13:11:33;1.52;;;1.42;;
7903;SDS011;3997;48.416;8.512;2023-04-25T13:14:00;1.00;;;1.00;;
7903;SDS011;3997;48.416;8.512;2023-04-25T13:16:26;1.60;;;1.50;;
7903;SDS011;3997;48.416;8.512;2023-04-25T13:18:53;1.40;;;1.30;;
7903;SDS011;3997;48.416;8.512;2023-04-25T13:21:21;1.42;;;1.33;;
7903;SDS011;3997;48.416;8.512;2023-04-25T13:23:48;1.25;;;1.15;;
7903;SDS011;3997;48.416;8.512;2023-04-25T13:26:15;1.10;;;1.00;;
7903;SDS011;3997;48.416;8.512;2023-04-25T13:28:41;1.70;;;1.60;;
7903;SDS011;3997;48.416;8.512;2023-04-25T13:31:08;1.05;;;1.05;;
7903;SDS011;3997;48.416;8.512;2023-04-25T13:33:34;6.00;;;5.50;;
7903;SDS011;3997;48.416;8.512;2023-04-25T13:36:01;8.57;;;7.70;;
7903;SDS011;3997;48.416;8.512;2023-04-25T13:38:27;2.22;;;2.05;;
7903;SDS011;3997;48.416;8.512;2023-04-25T13:40:55;3.50;;;3.20;;
7903;SDS011;3997;48.416;8.512;2023-04-25T13:43:21;2.13;;;2.03;;
7903;SDS011;3997;48.416;8.512;2023-04-25T13:45:48;3.25;;;3.05;;
7903;SDS011;3997;48.416;8.512;2023-04-25T13:48:14;1.38;;;1.27;;
7903;SDS011;3997;48.416;8.512;2023-04-25T13:50:41;1.27;;;1.00;;
7903;SDS011;3997;48.416;8.512;2023-04-25T13:53:07;1.30;;;1.20;;
7903;SDS011;3997;48.416;8.512;2023-04-25T13:55:34;0.90;;;0.90;;
7903;SDS011;3997;48.416;8.512;2023-04-25T13:58:01;1.40;;;1.30;;
7903;SDS011;3997;48.416;8.512;2023-04-25T14:00:32;2.58;;;2.40;;
7903;SDS011;3997;48.416;8.512;2023-04-25T14:02:58;1.33;;;1.23;;
7903;SDS011;3997;48.416;8.512;2023-04-25T14:05:25;1.15;;;1.13;;
7903;SDS011;3997;48.416;8.512;2023-04-25T14:07:51;1.58;;;1.48;;
7903;SDS011;3997;48.416;8.512;2023-04-25T14:10:18;1.80;;;1.70;;
7903;SDS011;3997;48.416;8.512;2023-04-25T14:12:44;1.50;;;1.40;;
7903;SDS011;3997;48.416;8.512;2023-04-25T14:15:12;1.23;;;1.10;;
7903;SDS011;3997;48.416;8.512;2023-04-25T14:17:38;1.77;;;1.30;;
7903;SDS011;3997;48.416;8.512;2023-04-25T14:20:05;1.30;;;1.30;;
7903;SDS011;3997;48.416;8.512;2023-04-25T14:22:32;0.80;;;0.80;;
7903;SDS011;3997;48.416;8.512;2023-04-25T14:24:59;0.98;;;0.98;;
7903;SDS011;3997;48.416;8.512;2023-04-25T14:27:26;1.27;;;1.20;;
7903;SDS011;3997;48.416;8.512;2023-04-25T14:29:53;1.00;;;1.00;;
7903;SDS011;3997;48.416;8.512;2023-04-25T14:32:20;1.15;;;1.13;;
7903;SDS011;3997;48.416;8.512;2023-04-25T14:34:47;0.93;;;0.93;;
7903;SDS011;3997;48.416;8.512;2023-04-25T14:37:14;1.45;;;1.35;;
7903;SDS011;3997;48.416;8.512;2023-04-25T14:39:41;1.35;;;1.25;;
7903;SDS011;3997;48.416;8.512;2023-04-25T14:42:07;2.15;;;1.95;;
7903;SDS011;3997;48.416;8.512;2023-04-25T14:44:34;1.40;;;1.30;;
7903;SDS011;3997;48.416;8.512;2023-04-25T14:47:00;1.30;;;1.20;;
7903;SDS011;3997;48.416;8.512;2023-04-25T14:49:28;1.67;;;1.50;;
7903;SDS011;3997;48.416;8.512;2023-04-25T14:51:54;1.85;;;1.75;;
7903;SDS011;3997;48.416;8.512;2023-04-25T14:54:21;1.42;;;1.33;;
7903;SDS011;3997;48.416;8.512;2023-04-25T14:56:47;1.70;;;1.50;;
7903;SDS011;3997;48.416;8.512;2023-04-25T14:59:14;1.00;;;1.00;;
7903;SDS011;3997;48.416;8.512;2023-04-25T15:01:40;2.10;;;1.60;;
7903;SDS011;3997;48.416;8.512;2023-04-25T15:04:07;1.40;;;1.30;;
7903;SDS011;3997;48.416;8.512;2023-04-25T15:06:34;1.35;;;1.25;;
7903;SDS011;3997;48.416;8.512;2023-04-25T15:09:01;1.10;;;1.10;;
7903;SDS011;3997;48.416;8.512;2023-04-25T15:11:28;1.10;;;1.10;;
7903;SDS011;3997;48.416;8.512;2023-04-25T15:13:54;1.40;;;1.40;;
7903;SDS011;3997;48.416;8.512;2023-04-25T15:16:21;0.85;;;0.85;;